createdAt,value
2022-09-03T00:01:16.657Z,3.70
2022-09-03T00:03:47.684Z,2.25
2022-09-03T00:06:55.644Z,2.22
2022-09-03T00:09:27.097Z,3.67
2022-09-03T00:12:05.699Z,4.45
2022-09-03T00:14:38.945Z,1.27
2022-09-03T00:17:11.059Z,2.90
2022-09-03T00:19:46.943Z,3.92
2022-09-03T00:22:19.116Z,2.30
2022-09-03T00:24:48.807Z,5.50
2022-09-03T00:27:18.712Z,3.25
2022-09-03T00:29:50.747Z,1.63
2022-09-03T00:32:22.677Z,5.28
2022-09-03T00:34:56.517Z,1.60
2022-09-03T00:37:25.340Z,1.85
2022-09-03T00:39:55.627Z,2.23
2022-09-03T00:42:39.960Z,2.85
2022-09-03T00:45:23.560Z,4.13
2022-09-03T00:48:06.409Z,3.42
2022-09-03T00:50:46.554Z,1.33
2022-09-03T00:53:27.021Z,3.47
2022-09-03T00:56:00.898Z,1.40
2022-09-03T00:59:01.954Z,5.50
2022-09-03T01:01:36.385Z,3.10
2022-09-03T01:04:21.230Z,1.80
2022-09-03T01:06:58.788Z,2.08
2022-09-03T01:09:41.381Z,4.43
2022-09-03T01:12:17.656Z,3.33
2022-09-03T01:15:00.053Z,3.47
2022-09-03T01:17:42.780Z,6.55
2022-09-03T01:20:25.983Z,3.22
2022-09-03T01:23:30.152Z,3.97
2022-09-03T01:26:15.077Z,7.38
2022-09-03T01:28:56.647Z,1.55
2022-09-03T01:31:35.360Z,3.45
2022-09-03T01:34:14.898Z,2.35
2022-09-03T01:36:52.484Z,3.85
2022-09-03T01:39:27.292Z,3.35
2022-09-03T01:42:20.726Z,3.03
2022-09-03T01:45:07.582Z,1.88
2022-09-03T01:47:50.003Z,2.47
2022-09-03T01:50:34.672Z,1.92
2022-09-03T01:53:10.505Z,4.35
2022-09-03T01:55:55.007Z,3.35
2022-09-03T01:58:29.329Z,2.63
2022-09-03T02:01:02.624Z,3.78
2022-09-03T02:03:36.160Z,3.35
2022-09-03T02:06:09.093Z,2.35
2022-09-03T02:08:36.284Z,4.63
2022-09-03T02:11:06.110Z,3.38
2022-09-03T02:13:38.680Z,5.82
2022-09-03T02:16:13.217Z,2.47
2022-09-03T02:18:44.547Z,2.75
2022-09-03T02:21:13.349Z,8.77
2022-09-03T02:23:42.175Z,3.50
2022-09-03T02:26:12.028Z,1.55
2022-09-03T02:28:39.240Z,4.03
2022-09-03T02:31:07.988Z,4.25
2022-09-03T02:33:38.188Z,1.92
2022-09-03T02:36:07.415Z,7.83
2022-09-03T02:38:34.829Z,5.03
2022-09-03T02:41:01.943Z,1.60
2022-09-03T02:43:37.668Z,6.15
2022-09-03T02:46:10.131Z,3.25
2022-09-03T02:48:37.549Z,1.90
2022-09-03T02:51:10.201Z,2.85
2022-09-03T02:53:42.286Z,3.65
2022-09-03T02:56:09.421Z,3.08
2022-09-03T02:58:36.685Z,1.63
2022-09-03T03:01:04.476Z,3.03
2022-09-03T03:03:33.331Z,4.13
2022-09-03T03:06:03.078Z,2.88
2022-09-03T03:08:32.243Z,2.28
2022-09-03T03:11:00.793Z,3.72
2022-09-03T03:13:29.218Z,2.63
2022-09-03T03:15:57.475Z,2.20
2022-09-03T03:18:24.800Z,2.13
2022-09-03T03:20:54.297Z,4.35
2022-09-03T03:23:21.668Z,4.20
2022-09-03T03:25:48.803Z,3.00
2022-09-03T03:28:16.021Z,1.92
2022-09-03T03:30:43.218Z,7.15
2022-09-03T03:33:10.563Z,4.88
2022-09-03T03:35:37.779Z,3.55
2022-09-03T03:38:06.240Z,1.52
2022-09-03T03:40:33.933Z,2.83
2022-09-03T03:43:01.006Z,2.80
2022-09-03T03:45:28.145Z,5.20
2022-09-03T03:47:58.180Z,3.28
2022-09-03T03:50:26.234Z,2.13
2022-09-03T03:52:53.610Z,7.97
2022-09-03T03:55:22.805Z,2.83
2022-09-03T03:57:54.180Z,3.10
2022-09-03T04:00:21.481Z,1.50
2022-09-03T04:02:52.636Z,2.85
2022-09-03T04:05:23.182Z,1.92
2022-09-03T04:07:51.146Z,3.20
2022-09-03T04:10:18.288Z,4.47
2022-09-03T04:12:46.743Z,1.80
2022-09-03T04:15:13.825Z,3.00
2022-09-03T04:17:40.878Z,1.50
2022-09-03T04:20:08.540Z,5.53
2022-09-03T04:22:35.644Z,2.58
2022-09-03T04:25:02.745Z,1.67
2022-09-03T04:27:29.961Z,2.60
2022-09-03T04:29:58.502Z,1.60
2022-09-03T04:32:43.906Z,2.03
2022-09-03T04:35:11.513Z,2.40
2022-09-03T04:37:38.652Z,1.30
2022-09-03T04:40:06.823Z,2.75
2022-09-03T04:42:33.921Z,5.97
2022-09-03T04:45:03.329Z,1.10
2022-09-03T04:47:30.491Z,2.45
2022-09-03T04:49:57.678Z,2.83
2022-09-03T04:52:24.972Z,3.33
2022-09-03T04:54:52.057Z,4.63
2022-09-03T04:57:19.140Z,2.67
2022-09-03T04:59:46.256Z,3.92
2022-09-03T05:02:15.625Z,1.50
2022-09-03T05:04:43.149Z,4.85
2022-09-03T05:07:10.257Z,1.60
2022-09-03T05:09:37.367Z,2.08
2022-09-03T05:12:04.752Z,2.53
2022-09-03T05:14:33.052Z,3.10
2022-09-03T05:17:00.292Z,1.85
2022-09-03T05:19:29.205Z,4.93
2022-09-03T05:21:56.265Z,2.67
2022-09-03T05:24:24.018Z,1.88
2022-09-03T05:26:51.123Z,2.78
2022-09-03T05:29:19.954Z,2.42
2022-09-03T05:31:47.133Z,3.38
2022-09-03T05:34:16.377Z,2.90
2022-09-03T05:36:47.078Z,1.75
2022-09-03T05:39:14.384Z,3.97
2022-09-03T05:41:41.602Z,1.65
2022-09-03T05:44:08.740Z,3.38
2022-09-03T05:46:37.498Z,2.40
2022-09-03T05:49:06.006Z,1.30
2022-09-03T05:51:34.707Z,2.40
2022-09-03T05:54:03.856Z,2.35
2022-09-03T05:56:32.650Z,1.42
2022-09-03T05:59:01.927Z,1.70
2022-09-03T06:01:31.861Z,1.75
2022-09-03T06:04:01.470Z,2.50
2022-09-03T06:06:30.064Z,1.80
2022-09-03T06:08:59.422Z,2.42
2022-09-03T06:11:29.560Z,5.10
2022-09-03T06:13:58.064Z,1.60
2022-09-03T06:16:30.576Z,1.23
2022-09-03T06:18:59.779Z,4.72
2022-09-03T06:21:27.441Z,2.00
2022-09-03T06:24:00.003Z,1.58
2022-09-03T06:26:29.822Z,5.78
2022-09-03T06:28:57.580Z,2.22
2022-09-03T06:31:25.631Z,3.42
2022-09-03T06:33:54.595Z,5.55
2022-09-03T06:36:23.279Z,1.63
2022-09-03T06:38:53.053Z,5.00
2022-09-03T06:41:25.080Z,1.70
2022-09-03T06:43:55.748Z,4.63
2022-09-03T06:46:24.095Z,3.22
2022-09-03T06:48:51.966Z,1.17
2022-09-03T06:51:20.860Z,5.72
2022-09-03T06:53:49.999Z,4.10
2022-09-03T06:56:18.991Z,2.38
2022-09-03T06:58:48.709Z,3.80
2022-09-03T07:01:19.767Z,3.45
2022-09-03T07:03:49.279Z,2.65
2022-09-03T07:06:18.387Z,4.57
2022-09-03T07:08:46.419Z,4.47
2022-09-03T07:11:15.695Z,2.13
2022-09-03T07:13:44.944Z,1.42
2022-09-03T07:16:14.096Z,2.20
2022-09-03T07:18:46.444Z,5.45
2022-09-03T07:21:15.908Z,3.00
2022-09-03T07:23:43.992Z,2.05
2022-09-03T07:26:13.361Z,4.60
2022-09-03T07:28:42.786Z,1.95
2022-09-03T07:31:12.505Z,1.80
2022-09-03T07:33:40.102Z,2.25
2022-09-03T07:36:11.217Z,2.15
2022-09-03T07:38:38.666Z,1.60
2022-09-03T07:41:08.804Z,1.52
2022-09-03T07:43:40.061Z,3.60
2022-09-03T07:46:07.542Z,2.70
2022-09-03T07:48:37.485Z,1.67
2022-09-03T07:51:05.051Z,7.00
2022-09-03T07:53:34.302Z,2.20
2022-09-03T07:56:02.415Z,3.78
2022-09-03T07:58:30.129Z,1.92
2022-09-03T08:00:58.279Z,1.58
2022-09-03T08:03:26.052Z,2.30
2022-09-03T08:05:53.453Z,2.97
2022-09-03T08:08:20.682Z,1.90
2022-09-03T08:10:49.122Z,2.45
2022-09-03T08:13:16.292Z,1.60
2022-09-03T08:15:43.478Z,5.80
2022-09-03T08:18:11.101Z,1.75
2022-09-03T08:20:38.995Z,1.85
2022-09-03T08:23:09.192Z,5.03
2022-09-03T08:25:36.364Z,3.30
2022-09-03T08:28:04.886Z,2.80
2022-09-03T08:30:32.158Z,1.55
2022-09-03T08:33:04.800Z,4.45
2022-09-03T08:35:34.725Z,2.00
2022-09-03T08:38:05.630Z,2.72
2022-09-03T08:40:38.178Z,4.85
2022-09-03T08:43:17.006Z,2.08
2022-09-03T08:45:44.416Z,3.05
2022-09-03T08:48:21.651Z,1.33
2022-09-03T08:50:56.176Z,3.72
2022-09-03T08:53:29.055Z,3.60
2022-09-03T08:56:02.895Z,2.45
2022-09-03T08:58:35.481Z,2.35
2022-09-03T09:01:11.887Z,10.18
2022-09-03T09:03:48.595Z,7.68
2022-09-03T09:06:23.740Z,2.88
2022-09-03T09:09:05.014Z,1.83
2022-09-03T09:11:47.270Z,3.85
2022-09-03T09:14:22.984Z,2.60
2022-09-03T09:16:57.761Z,1.40
2022-09-03T09:19:39.095Z,5.47
2022-09-03T09:22:11.368Z,2.65
2022-09-03T09:24:42.315Z,4.20
2022-09-03T09:29:48.706Z,2.63
2022-09-03T09:32:19.386Z,1.08
2022-09-03T09:34:52.318Z,4.50
2022-09-03T09:39:56.628Z,2.40
2022-09-03T09:42:24.453Z,2.55
2022-09-03T09:44:53.351Z,2.22
2022-09-03T09:47:27.731Z,2.35
2022-09-03T09:49:56.727Z,6.05
2022-09-03T09:52:26.109Z,5.55
2022-09-03T09:55:05.240Z,4.53
2022-09-03T09:57:32.530Z,5.35
2022-09-03T10:00:12.787Z,2.70
2022-09-03T10:02:42.442Z,1.93
2022-09-03T10:05:15.970Z,3.70
2022-09-03T10:07:43.663Z,1.13
2022-09-03T10:10:17.535Z,2.58
2022-09-03T10:12:49.847Z,2.95
2022-09-03T10:15:31.199Z,2.58
2022-09-03T10:18:03.383Z,2.47
2022-09-03T10:20:39.490Z,3.05
2022-09-03T10:23:17.969Z,2.92
2022-09-03T10:26:04.479Z,3.70
2022-09-03T10:28:33.369Z,1.95
2022-09-03T10:31:17.954Z,1.92
2022-09-03T10:33:49.652Z,3.28
2022-09-03T10:36:23.757Z,3.47
2022-09-03T10:39:01.652Z,2.70
2022-09-03T10:41:41.545Z,3.15
2022-09-03T10:44:48.988Z,2.88
2022-09-03T10:47:37.801Z,3.03
2022-09-03T10:50:17.393Z,2.53
2022-09-03T10:53:07.333Z,1.30
2022-09-03T10:55:47.174Z,4.18
2022-09-03T10:58:34.903Z,4.07
2022-09-03T11:01:09.699Z,2.22
2022-09-03T11:03:47.320Z,1.15
2022-09-03T11:06:20.640Z,1.48
2022-09-03T11:08:55.347Z,2.60
2022-09-03T11:11:28.243Z,3.03
2022-09-03T11:13:59.548Z,4.35
2022-09-03T11:16:31.743Z,2.72
2022-09-03T11:19:05.446Z,1.15
2022-09-03T11:21:35.422Z,2.58
2022-09-03T11:24:09.724Z,7.60
2022-09-03T11:26:37.765Z,3.15
2022-09-03T11:29:13.056Z,3.17
2022-09-03T11:31:57.771Z,8.30
2022-09-03T11:34:33.015Z,3.00
2022-09-03T11:37:18.617Z,2.25
2022-09-03T11:39:53.819Z,2.53
2022-09-03T11:42:37.313Z,4.28
2022-09-03T11:45:24.173Z,4.88
2022-09-03T11:47:52.200Z,6.10
2022-09-03T11:50:25.212Z,5.18
2022-09-03T11:53:07.738Z,2.17
2022-09-03T11:55:53.761Z,4.82
2022-09-03T11:58:25.761Z,3.95
2022-09-03T12:00:55.101Z,2.83
2022-09-03T12:03:28.629Z,3.42
2022-09-03T12:06:14.901Z,2.17
2022-09-03T12:09:06.015Z,2.17
2022-09-03T12:14:17.405Z,3.53
2022-09-03T12:17:10.426Z,8.38
2022-09-03T12:19:41.767Z,2.33
2022-09-03T12:22:15.749Z,3.30
2022-09-03T12:24:45.070Z,3.88
2022-09-03T12:27:18.455Z,2.28
2022-09-03T12:29:59.452Z,5.72
2022-09-03T12:34:54.897Z,1.42
2022-09-03T12:40:21.396Z,3.03
2022-09-03T12:42:49.386Z,1.42
2022-09-03T12:45:23.325Z,3.13
2022-09-03T12:47:53.796Z,7.53
2022-09-03T12:50:23.495Z,4.22
2022-09-03T12:52:54.730Z,5.55
2022-09-03T12:55:29.969Z,3.72
2022-09-03T12:58:03.582Z,7.68
2022-09-03T13:00:34.770Z,5.15
2022-09-03T13:03:06.110Z,5.80
2022-09-03T13:05:36.305Z,2.25
2022-09-03T13:08:08.125Z,2.35
2022-09-03T13:10:38.936Z,3.08
2022-09-03T13:13:20.023Z,2.97
2022-09-03T13:16:04.917Z,5.03
2022-09-03T13:18:43.572Z,4.57
2022-09-03T13:21:19.001Z,2.67
2022-09-03T13:24:00.913Z,2.25
2022-09-03T13:26:36.674Z,2.67
2022-09-03T13:29:33.403Z,2.00
2022-09-03T13:32:08.132Z,3.75
2022-09-03T13:34:40.524Z,4.28
2022-09-03T13:37:23.276Z,2.88
2022-09-03T13:39:55.903Z,4.53
2022-09-03T13:42:28.200Z,4.38
2022-09-03T13:45:00.390Z,6.65
2022-09-03T13:47:34.329Z,3.95
2022-09-03T13:50:22.691Z,5.10
2022-09-03T13:52:56.900Z,3.00
2022-09-03T13:55:31.747Z,5.00
2022-09-03T13:58:05.160Z,4.38
2022-09-03T14:00:38.633Z,7.57
2022-09-03T14:03:13.973Z,3.35
2022-09-03T14:05:54.152Z,5.78
2022-09-03T14:08:28.204Z,2.05
2022-09-03T14:11:04.459Z,1.85
2022-09-03T14:13:47.333Z,5.53
2022-09-03T14:16:29.790Z,2.08
2022-09-03T14:19:00.957Z,2.58
2022-09-03T14:21:31.518Z,1.58
2022-09-03T14:24:07.318Z,3.60
2022-09-03T14:26:39.999Z,5.72
2022-09-03T14:29:16.314Z,1.67
2022-09-03T14:32:24.343Z,3.63
2022-09-03T14:35:13.860Z,5.13
2022-09-03T14:38:00.046Z,2.03
2022-09-03T14:40:36.172Z,3.33
2022-09-03T14:43:16.792Z,2.40
2022-09-03T14:46:10.398Z,2.63
2022-09-03T14:48:51.679Z,3.15
2022-09-03T14:51:35.547Z,1.95
2022-09-03T14:54:18.991Z,3.55
2022-09-03T14:56:52.255Z,3.58
2022-09-03T14:59:39.493Z,2.15
2022-09-03T15:02:59.142Z,3.67
2022-09-03T15:05:41.720Z,1.58
2022-09-03T15:08:14.260Z,3.13
2022-09-03T15:10:46.709Z,0.95
2022-09-03T15:13:19.283Z,1.95
2022-09-03T15:16:02.207Z,3.03
2022-09-03T15:18:42.272Z,3.55
2022-09-03T15:21:24.305Z,4.43
2022-09-03T15:24:02.530Z,2.90
2022-09-03T15:26:51.241Z,3.75
2022-09-03T15:29:37.757Z,4.65
2022-09-03T15:32:17.020Z,3.45
2022-09-03T15:35:02.785Z,11.50
2022-09-03T15:37:37.260Z,3.00
2022-09-03T15:40:10.955Z,2.13
2022-09-03T15:42:38.970Z,3.40
2022-09-03T15:45:21.450Z,4.30
2022-09-03T15:47:55.994Z,2.17
2022-09-03T15:50:33.160Z,2.22
2022-09-03T15:53:05.024Z,1.58
2022-09-03T15:55:37.105Z,3.22
2022-09-03T15:58:18.760Z,3.60
2022-09-03T16:01:00.407Z,2.70
2022-09-03T16:03:47.062Z,4.57
2022-09-03T16:06:25.909Z,2.40
2022-09-03T16:08:55.520Z,2.00
2022-09-03T16:11:33.351Z,9.27
2022-09-03T16:14:07.297Z,10.13
2022-09-03T16:16:52.296Z,6.95
2022-09-03T16:19:26.360Z,7.80
2022-09-03T16:22:00.244Z,6.43
2022-09-03T16:24:35.233Z,4.15
2022-09-03T16:27:09.612Z,4.63
2022-09-03T16:29:38.796Z,4.13
2022-09-03T16:32:22.025Z,7.30
2022-09-03T16:35:03.090Z,2.35
2022-09-03T16:37:35.638Z,6.15
2022-09-03T16:40:15.678Z,2.53
2022-09-03T16:42:47.804Z,2.65
2022-09-03T16:45:27.288Z,2.33
2022-09-03T16:48:12.690Z,6.13
2022-09-03T16:50:58.127Z,3.75
2022-09-03T16:53:35.830Z,4.47
2022-09-03T16:56:24.532Z,6.30
2022-09-03T16:59:00.609Z,3.22
2022-09-03T17:01:43.686Z,3.95
2022-09-03T17:04:41.103Z,4.40
2022-09-03T17:07:29.308Z,2.13
2022-09-03T17:10:07.133Z,5.35
2022-09-03T17:12:42.572Z,1.80
2022-09-03T17:15:31.931Z,2.75
2022-09-03T17:18:12.419Z,3.20
2022-09-03T17:20:49.928Z,6.30
2022-09-03T17:23:38.249Z,6.03
2022-09-03T17:26:12.832Z,3.50
2022-09-03T17:28:56.570Z,2.85
2022-09-03T17:31:37.036Z,1.70
2022-09-03T17:34:15.098Z,3.83
2022-09-03T17:36:59.750Z,2.97
2022-09-03T17:40:01.813Z,6.18
2022-09-03T17:42:39.131Z,4.57
2022-09-03T17:45:15.591Z,4.75
2022-09-03T17:48:07.713Z,2.60
2022-09-03T17:50:45.007Z,6.88
2022-09-03T17:53:19.883Z,3.90
2022-09-03T17:55:56.278Z,6.15
2022-09-03T17:58:28.653Z,4.10
2022-09-03T18:01:02.989Z,2.42
2022-09-03T18:03:39.688Z,3.28
2022-09-03T18:06:12.919Z,2.92
2022-09-03T18:08:48.308Z,4.53
2022-09-03T18:11:21.568Z,3.63
2022-09-03T18:14:00.479Z,9.23
2022-09-03T18:16:29.314Z,4.47
2022-09-03T18:19:02.876Z,3.92
2022-09-03T18:21:52.872Z,4.10
2022-09-03T18:24:50.780Z,7.68
2022-09-03T18:27:46.648Z,6.10
2022-09-03T18:30:35.336Z,9.27
2022-09-03T18:33:20.717Z,8.27
2022-09-03T18:36:06.912Z,7.00
2022-09-03T18:38:55.818Z,4.55
2022-09-03T18:42:11.392Z,11.35
2022-09-03T18:45:22.353Z,10.48
2022-09-03T18:48:24.049Z,7.13
2022-09-03T18:51:23.735Z,10.05
2022-09-03T18:54:21.404Z,6.32
2022-09-03T18:57:09.303Z,5.55
2022-09-03T19:00:09.748Z,11.63
2022-09-03T19:03:09.733Z,8.95
2022-09-03T19:06:07.222Z,12.95
2022-09-03T19:09:00.100Z,14.27
2022-09-03T19:11:51.200Z,10.93
2022-09-03T19:14:50.489Z,9.60
2022-09-03T19:17:42.246Z,5.78
2022-09-03T19:23:18.960Z,8.43
2022-09-03T19:26:04.825Z,5.88
2022-09-03T19:28:55.729Z,10.25
2022-09-03T19:31:54.926Z,5.35
2022-09-03T19:34:57.874Z,6.10
2022-09-03T19:37:51.492Z,6.22
2022-09-03T19:40:57.450Z,3.58
2022-09-03T19:43:53.782Z,8.57
2022-09-03T19:46:50.655Z,5.00
2022-09-03T19:49:50.760Z,6.00
2022-09-03T19:52:44.444Z,6.63
2022-09-03T19:55:38.344Z,13.43
2022-09-03T19:58:42.528Z,9.70
2022-09-03T20:01:30.305Z,11.27
2022-09-03T20:04:22.847Z,9.75
2022-09-03T20:07:08.810Z,5.93
2022-09-03T20:09:58.860Z,8.32
2022-09-03T20:12:32.790Z,4.00
2022-09-03T20:15:02.375Z,8.73
2022-09-03T20:17:38.495Z,6.80
2022-09-03T20:20:16.127Z,6.93
2022-09-03T20:22:52.427Z,4.10
2022-09-03T20:25:46.765Z,5.38
2022-09-03T20:28:37.381Z,8.48
2022-09-03T20:31:11.363Z,5.70
2022-09-03T20:33:51.308Z,4.68
2022-09-03T20:36:29.956Z,9.13
2022-09-03T20:39:27.829Z,6.10
2022-09-03T20:42:02.842Z,8.40
2022-09-03T20:44:58.726Z,5.47
2022-09-03T20:48:01.502Z,8.60
2022-09-03T20:50:46.788Z,5.75
2022-09-03T20:53:34.476Z,6.55
2022-09-03T20:56:10.644Z,12.68
2022-09-03T20:58:44.386Z,9.27
2022-09-03T21:01:22.715Z,8.02
2022-09-03T21:04:04.150Z,7.07
2022-09-03T21:06:38.835Z,10.90
2022-09-03T21:09:20.362Z,13.82
2022-09-03T21:12:02.515Z,9.57
2022-09-03T21:14:34.997Z,14.02
2022-09-03T21:39:59.407Z,8.32
2022-09-03T21:42:32.943Z,7.13
2022-09-03T21:45:07.663Z,10.10
2022-09-03T21:47:40.847Z,10.85
2022-09-03T21:50:17.103Z,10.98
2022-09-03T21:52:55.523Z,6.80
2022-09-03T21:55:32.656Z,6.22
2022-09-03T22:21:03.246Z,25.35
2022-09-03T22:23:42.895Z,16.27
2022-09-03T22:26:26.881Z,23.05
2022-09-03T22:29:03.999Z,16.00
2022-09-03T22:36:47.079Z,12.27
2022-09-03T22:39:24.800Z,14.02
2022-09-03T22:42:16.044Z,9.65
2022-09-03T22:47:25.916Z,15.45
2022-09-03T22:50:03.109Z,11.48
2022-09-03T22:52:34.699Z,11.15
2022-09-03T22:55:13.844Z,13.25
2022-09-03T22:57:47.880Z,12.40
2022-09-03T23:00:15.888Z,13.32
2022-09-03T23:02:45.936Z,11.65
2022-09-03T23:05:40.970Z,13.25
2022-09-03T23:08:13.101Z,12.30
2022-09-03T23:10:55.316Z,14.20
2022-09-03T23:13:26.654Z,14.00
2022-09-03T23:16:07.674Z,13.05
2022-09-03T23:18:36.705Z,13.20
2022-09-03T23:21:15.152Z,14.55
2022-09-03T23:23:46.918Z,13.45
2022-09-03T23:26:23.374Z,12.20
2022-09-03T23:28:57.504Z,10.87
2022-09-03T23:31:27.388Z,11.05
2022-09-03T23:33:56.065Z,12.70
2022-09-03T23:37:31.680Z,13.10
2022-09-03T23:39:53.493Z,12.23
2022-09-03T23:42:32.979Z,13.70
2022-09-03T23:47:45.880Z,12.40
2022-09-03T23:50:30.973Z,12.35
2022-09-03T23:53:19.256Z,11.00
2022-09-03T23:55:56.184Z,10.80
2022-09-03T23:58:34.285Z,13.20
